Results : Smuts Irene River : AdventureTails RiverWalk & Run on Saturday @ 07:00, 4th January 2020

Search Download Share to Facebook
G Gender Position O Overall Position C Category Position Dog Run
21km:Male [11]
G O C Number Name Activity Gender Age Category Duration
1 1 1 TA2985 Corne Mynhardt 21km Male 38 Sub-Veteran (30-39) 02:16:54
2 2 2 TA3049 Karl Barnard 21km Male 38 Sub-Veteran (30-39) 02:17:00
3 3 1 TA3057 Sean Webber 21km Male 26 Senior (19-29) 02:21:00
4 4 1 TRAIL11732 Terrence Brink 21km Male 46 Veteran (40-49) 02:22:00
5 5 2 TA2603 Sibusiso Mahlangu 21km Male 42 Veteran (40-49) 02:25:39
6 6 3 TRAIL11776 Bryan Do Vale 21km Male 37 Sub-Veteran (30-39) 02:25:46
7 9 2 TRAIL12928 Saki Marais 21km Male 29 Senior (19-29) 02:44:02
8 10 3 TA2601 Dalu Majeke 21km Male 42 Veteran (40-49) 02:45:48
9 11 1 TRAIL20578 Francois Steyl 21km Male 70 Grand-Master (60+) 02:50:55
10 13 4 TA3010 Prosper Kalua 21km Male 30 Sub-Veteran (30-39) 03:07:31
11 15 5 TRAIL10750 Michael Do Carmo 21km Male 36 Sub-Veteran (30-39) 03:46:13
21km:Female [4]
G O C Number Name Activity Gender Age Category Duration
1 7 1 TA2541 Sicelinhlanhla Dlamini 21km Female 38 Sub-Veteran (30-39) 02:37:17
2 8 1 TRAIL20183 Altie Clark 21km Female 40 Veteran (40-49) 02:41:30
3 12 1 TRAIL20577 Zena Kennerley 21km Female 57 Master (50-59) 02:51:06
4 14 2 TRAIL11873 Sharnel Do Vale 21km Female 35 Sub-Veteran (30-39) 03:46:02
15km:Male [11]
G O C Number Name Activity Gender Age Category Duration
1 1 1 TRAIL20054 Dewald Engels 15km Male 37 Sub-Veteran (30-39) 01:23:29
2 2 2 TA2955 Bradley Kiggan 15km Male 35 Sub-Veteran (30-39) 01:27:10
3 3 1 TA2667 Eddie Kriel 15km Male 44 Veteran (40-49) 01:28:59
4 4 3 TA2924 Degert Botha 15km Male 35 Sub-Veteran (30-39) 01:40:08
5 5 4 TA3034 Johan Van Zyl 15km Male 32 Sub-Veteran (30-39) 01:40:13
6 7 2 TA2517 Dion Van Zyl 15km Male 46 Veteran (40-49) 01:49:34
7 9 3 TA3066 Azwiangwisi Maguga 15km Male 45 Veteran (40-49) 01:55:15
8 10 4 TA2665 Dirk Van Den Heever 15km Male 41 Veteran (40-49) 02:00:07
9 12 5 TA3005 Leon Mabebe 15km Male 33 Sub-Veteran (30-39) 02:00:23
10 14 6 TA2505 Oscar Ndou 15km Male 30 Sub-Veteran (30-39) 02:02:57
11 15 5 TA2613 Tshibuleni Conway Makhado 15km Male 43 Veteran (40-49) 02:04:28
15km:Female [4]
G O C Number Name Activity Gender Age Category Duration
1 6 1 TA2546 Ilse De Beer 15km Female 31 Sub-Veteran (30-39) 01:45:36
2 8 1 TA3504 Yolan Friedmann 15km Female 47 Veteran (40-49) 01:55:09
3 11 2 TA2407 Emrie Van Den Heever 15km Female 39 Sub-Veteran (30-39) 02:00:11
4 13 3 TA3493 Leonie Knoetze 15km Female 33 Sub-Veteran (30-39) 02:02:20
10km:Male [20]
G O C Number Name Activity Gender Age Category Duration
1 1 1 TA2333 Konstant Petzer 10km Male 35 Sub-Veteran (30-39) 00:54:28
2 2 1 TRAIL10286 Frikkie Coetzer 10km Male 45 Veteran (40-49) 00:57:13
3 3 2 TA2108 Christopher Westray 10km Male 33 Sub-Veteran (30-39) 01:02:55
4 4 1 TA1882 Nicolaas De Beer 10km Male 23 Senior (19-29) 01:03:37
5 5 3 TRAIL20056 Siphiwe Sithole 10km Male 33 Sub-Veteran (30-39) 01:05:06
6 6 2 TA2156 Steve Turner 10km Male 49 Veteran (40-49) 01:07:27
7 7 3 TA2303 Nicolas Brink 10km Male 41 Veteran (40-49) 01:09:18
8 10 4 TA1829 Vernando Suai 10km Male 36 Sub-Veteran (30-39) 01:17:41
9 12 1 TRAIL20725 Gerald Steyn 10km Male 68 Grand-Master (60+) 01:23:37
10 13 1 TRAIL20181 Jacob Zakhele 10km Male 56 Master (50-59) 01:37:29
11 15 4 TA2227 Brian Suni 10km Male 49 Veteran (40-49) 01:39:29
12 16 5 TA1868 Matome Rammutla 10km Male 35 Sub-Veteran (30-39) 01:40:04
13 17 5 TA2140 Sizwe Ngcobo 10km Male 47 Veteran (40-49) 01:44:15
14 20 1 TA0397 Kungothanedo Mageke 10km Male 13 12 to 15 01:50:12
15 22 2 TRAIL11476 Charles Marais 10km Male 60 Grand-Master (60+) 01:51:43
16 23 6 TA2312 Sibusiso Radebe 10km Male 32 Sub-Veteran (30-39) 01:53:49
17 25 2 TA1808 Jonathan Ainscough 10km Male 29 Senior (19-29) 02:04:14
18 27 2 TRAIL20179 William Templeton 10km Male 56 Master (50-59) 02:11:36
19 30 3 TA2222 Andries Bouwer 10km Male 63 Grand-Master (60+) 02:13:20
20 31 7 TA2982 Tonderai Mujeni 10km Male 37 Sub-Veteran (30-39) 02:15:19
10km:Female [13]
G O C Number Name Activity Gender Age Category Duration
1 8 1 TA2339 Mirike Loedolff 10km Female 23 Senior (19-29) 01:11:40
2 9 2 TA1177 Carla De Beer 10km Female 29 Senior (19-29) 01:16:50
3 11 1 TA2255 Talitha Human 10km Female 31 Sub-Veteran (30-39) 01:18:30
4 14 2 TA1894 Kgomotso Moumakwe 10km Female 32 Sub-Veteran (30-39) 01:37:32
5 18 1 TA1169 Vanessa Van Heerden 10km Female 46 Veteran (40-49) 01:48:42
6 19 3 TA2174 Tlotlomatso Tshabatau 10km Female 28 Senior (19-29) 01:50:05
7 21 1 TA2109 Letha Kotze 10km Female 72 Grand-Master (60+) 01:51:17
8 24 1 TA2116 Sue Pretorius 10km Female 53 Master (50-59) 01:55:58
9 26 3 TA2247 Lee-anne Olfsen 10km Female 32 Sub-Veteran (30-39) 02:04:17
10 28 2 TA1522 Nomgcobo Majeke 10km Female 41 Veteran (40-49) 02:13:11
11 29 2 TA2243 Elna Bouwer 10km Female 66 Grand-Master (60+) 02:13:17
12 32 4 TA2147 Tshepi Moropa 10km Female 27 Senior (19-29) 02:29:49
13 33 5 TA2161 Sinazo Cobongela 10km Female 27 Senior (19-29) 02:29:52
5km:Male [30]
G O C Number Name Activity Gender Age Category Duration
1 1 1 TA0168 Clinton Kriel 5km Male 22 Senior (19-29) 00:26:08
2 2 1 TA1803 Nick Latta 5km Male 48 Veteran (40-49) 00:28:04
3 3 2 TRAIL20637 Jabez Steenkamp 5km Male 47 Veteran (40-49) 00:31:44
4 5 1 TA1363 Carl Kieck 5km Male 38 Sub-Veteran (30-39) 00:33:21
5 6 2 TA1526 Ruan Dickinson 5km Male 29 Senior (19-29) 00:33:29
6 11 3 TA1289 Stephen Liebenberg 5km Male 28 Senior (19-29) 00:35:56
7 12 2 TA1272 Kershan Pillay 5km Male 34 Sub-Veteran (30-39) 00:36:48
8 14 3 TA1309 Regardt Van Vuuren 5km Male 31 Sub-Veteran (30-39) 00:39:02
9 21 4 TA0358 Marius Zwemstra 5km Male 30 Sub-Veteran (30-39) 00:42:40
10 23 4 TA0449 Morne Van Vuuren 5km Male 25 Senior (19-29) 00:44:12
11 25 1 TA1393 Cyril Williams 5km Male 53 Master (50-59) 00:45:44
12 27 3 TA1474 Riaan Swart 5km Male 43 Veteran (40-49) 00:47:44
13 34 2 TRAIL11168 Glyn Boddy 5km Male 55 Master (50-59) 00:49:30
14 35 1 TRAIL20083 Ben Pieterse 5km Male 63 Grand-Master (60+) 00:49:35
15 38 1 TA0031 Yeshiel Pillay 5km Male 13 12 to 15 00:51:15
16 39 3 TA1324 Jj Barnard 5km Male 57 Master (50-59) 00:51:52
17 40 5 TA1349 Martin Wegenaar 5km Male 26 Senior (19-29) 00:52:14
18 44 1 TA1432 Ntanda Majeke 5km Male 9 Under 11 00:55:15
19 45 2 TA1237 Ngazo Nyengane 5km Male 7 Under 11 00:55:20
20 46 6 TA1265 Connor Laming 5km Male 26 Senior (19-29) 00:55:24
21 50 2 TA1343 Andrzej Kijko 5km Male 71 Grand-Master (60+) 00:58:36
22 52 5 TA1379 Fred Bezuidenhout 5km Male 38 Sub-Veteran (30-39) 01:03:17
23 53 3 TA1440 Johannes Van Zyl 5km Male 8 Under 11 01:03:27
24 59 4 TA1261 Heinrich Maritz 5km Male 8 Under 11 01:05:34
25 62 6 TA1493 Wesley Bloxham 5km Male 36 Sub-Veteran (30-39) 01:05:59
26 67 7 TA0392 Tylon Van Veenhuyzen 5km Male 33 Sub-Veteran (30-39) 01:08:06
27 71 5 TA1335 Jeanru Brink 5km Male 9 Under 11 01:18:38
28 74 6 TA1346 Saiyen Pillay 5km Male 6 Under 11 01:21:55
29 76 8 TA1724 Dawie Louw 5km Male 37 Sub-Veteran (30-39) 02:06:01
30 78 4 TA1473 Pet Jansen Van Rensburg 5km Male 55 Master (50-59) 02:06:10
5km:Female [48]
G O C Number Name Activity Gender Age Category Duration
1 4 1 TA1291 Natasha Van Wyk 5km Female 36 Sub-Veteran (30-39) 00:32:33
2 7 1 TA1540 Claudia Cloete 5km Female 42 Veteran (40-49) 00:33:36
3 8 1 TA0479 Marli Kriel 5km Female 22 Senior (19-29) 00:34:17
4 9 1 TA1210 Juane Brink 5km Female 15 12 to 15 00:35:11
5 10 2 TA1409 Imke Joubert 5km Female 26 Senior (19-29) 00:35:16
6 13 2 TA0401 Denise Nelson 5km Female 30 Sub-Veteran (30-39) 00:38:56
7 15 3 TA1356 Kelly-ann Van Schalkwyk 5km Female 20 Senior (19-29) 00:39:05
8 16 3 TA0169 Danelia Botes 5km Female 31 Sub-Veteran (30-39) 00:41:53
9 17 1 TA1355 Aj Van Wyngaard 5km Female 1 Under 11 00:42:14
10 18 4 TA1530 Christina Van Wyngaard 5km Female 32 Sub-Veteran (30-39) 00:42:17
11 19 2 TA1785 Kirsten Robinson 5km Female 1 Under 11 00:42:21
12 20 5 TA1370 Ri�tte Kirsten 5km Female 32 Sub-Veteran (30-39) 00:42:23
13 22 4 TA1294 Marie Zwemstra 5km Female 27 Senior (19-29) 00:42:53
14 24 5 TA1223 Samantha Webber 5km Female 24 Senior (19-29) 00:44:19
15 26 6 TA1229 Vadia Whitlow 5km Female 39 Sub-Veteran (30-39) 00:45:49
16 28 2 TA1507 Colette Swart 5km Female 41 Veteran (40-49) 00:47:46
17 29 7 TRAIL12170 Cornelia Hutchinson 5km Female 38 Sub-Veteran (30-39) 00:47:51
18 30 3 TA1480 Susie Latta 5km Female 48 Veteran (40-49) 00:47:54
19 31 4 TA1481 Brenda Bleiker 5km Female 44 Veteran (40-49) 00:48:02
20 32 1 TA1392 Annemarie Nieuwenhuizen 5km Female 58 Master (50-59) 00:48:11
21 33 1 TRAIL20777 Janine Rust 5km Female 61 Grand-Master (60+) 00:48:55
22 36 6 TRAIL12890 Sherilyn Van Wyk 5km Female 23 Senior (19-29) 00:50:22
23 37 5 TA0227 Patsy Pillay 5km Female 41 Veteran (40-49) 00:51:08
24 41 2 TA1372 Zante Britz 5km Female 13 12 to 15 00:52:36
25 42 7 TA1323 Bernice Tiedt 5km Female 27 Senior (19-29) 00:54:34
26 43 2 TRAIL20180 Nonhlanhla Mathebula 5km Female 53 Master (50-59) 00:55:00
27 47 8 TA1460 Tamika Fellows 5km Female 26 Senior (19-29) 00:55:28
28 48 3 TA0414 Johanette Fellows 5km Female 50 Master (50-59) 00:57:30
29 49 2 TRAIL20199 Grazyna Kijko 5km Female 69 Grand-Master (60+) 00:58:32
30 51 8 TA1314 Annathea Barnard 5km Female 39 Sub-Veteran (30-39) 01:03:14
31 54 1 TA1245 Lilliana Venter 5km Female 18 16 to 18 01:03:49
32 55 3 TA1484 Anna Sofia Kleynhans 5km Female 69 Grand-Master (60+) 01:03:55
33 56 6 TA0282 Izelle Rautenbach 5km Female 42 Veteran (40-49) 01:03:57
34 57 7 TA1337 Vicki Turner 5km Female 47 Veteran (40-49) 01:04:32
35 58 4 TA0252 Denise Sproston 5km Female 52 Master (50-59) 01:05:21
36 60 4 TA1220 Ella Steyn 5km Female 70 Grand-Master (60+) 01:05:39
37 61 9 TRAIL12871 Emmerencia Van Zyl 5km Female 37 Sub-Veteran (30-39) 01:05:48
38 63 9 TA0596 Tarryn Erlank 5km Female 29 Senior (19-29) 01:06:09
39 64 8 TA1385 Susan Maritz 5km Female 43 Veteran (40-49) 01:07:21
40 65 3 TA1367 Mignon Maritz 5km Female 10 Under 11 01:07:24
41 66 10 TA1292 Sephra Duncan 5km Female 33 Sub-Veteran (30-39) 01:08:02
42 68 5 TA1364 Susan Van Wyk 5km Female 51 Master (50-59) 01:12:07
43 69 9 TA2125 Karla Pure 5km Female 43 Veteran (40-49) 01:17:47
44 70 10 TA1280 Juanita Brink 5km Female 41 Veteran (40-49) 01:18:35
45 72 5 TA1290 Gerda Dannhauser 5km Female 63 Grand-Master (60+) 01:18:41
46 73 11 TA0045 Melissa Pillay 5km Female 33 Sub-Veteran (30-39) 01:21:51
47 75 6 TA1478 Sandria Fourie 5km Female 60 Grand-Master (60+) 02:05:58
48 77 6 TA1433 Phoebe Van Greuning 5km Female 51 Master (50-59) 02:06:07
2km:Male [14]
G O C Number Name Activity Gender Age Category Duration
1 1 1 TA0709 Thato Makitla 2km Male 11 Under 11 00:16:51
2 5 2 TA0926 Janco Brink 2km Male 8 Under 11 00:26:11
3 7 1 TA0735 Waldi Roux 2km Male 30 Sub-Veteran (30-39) 00:27:07
4 8 1 TA1241 Carl Van Zyl 2km Male 5 Under 11 00:29:16
5 9 1 TA1443 Jakobus Van Zyl 2km Male 51 Master (50-59) 00:29:21
6 10 2 TA1041 Jonathan Canaban 2km Male 53 Master (50-59) 00:30:20
7 18 1 TA1134 Cayden Vorster 2km Male 12 12 to 15 00:32:00
8 20 2 TA0840 Willem Pieters 2km Male 39 Sub-Veteran (30-39) 00:32:06
9 22 3 TA0759 Gert Vorster 2km Male 37 Sub-Veteran (30-39) 00:32:11
10 23 3 TA0820 David Mills 2km Male 50 Master (50-59) 00:32:14
11 25 1 TA0745 Giel Dannhauser 2km Male 67 Grand-Master (60+) 00:32:48
12 27 1 TA0659 Jan Klobe 2km Male 20 Senior (19-29) 00:33:54
22 55 3 TA0404 Finn Van Der Walt 2km Male 3 Under 11 01:02:05
23 56 5 TA1224 Rene Van Der Walt 2km Male 38 Sub-Veteran (30-39) 01:02:13
2km:Female [24]
G O C Number Name Activity Gender Age Category Duration
1 2 1 TA0838 Bokang Makitla 2km Female 7 Under 11 00:16:55
2 3 1 TA0995 Kamogelo Makitla 2km Female 33 Sub-Veteran (30-39) 00:16:58
3 4 1 TA0873 Holly Latta 2km Female 19 Senior (19-29) 00:21:44
4 6 2 TA1024 Danica Roux 2km Female 27 Senior (19-29) 00:27:04
5 11 2 TA0611 Carlene Van Heerden 2km Female 33 Sub-Veteran (30-39) 00:30:22
6 12 1 TA0851 Lorraine Schutte 2km Female 51 Master (50-59) 00:30:25
7 13 1 TA1167 Roma Schutte 2km Female 70 Grand-Master (60+) 00:30:28
8 14 2 TA0844 Seleste Canaban 2km Female 52 Master (50-59) 00:30:32
9 15 1 TA0990 Stephanie Jones 2km Female 44 Veteran (40-49) 00:30:37
10 16 3 TA0781 Geraldine Vorster 2km Female 34 Sub-Veteran (30-39) 00:31:53
11 17 2 TA1025 Anandi Labuschagne 2km Female 6 Under 11 00:31:57
12 19 4 TA1147 Wendy Pieters 2km Female 35 Sub-Veteran (30-39) 00:32:03
13 21 3 TA0732 Riley Pieters 2km Female 5 Under 11 00:32:09
14 24 3 TA0812 Jade Viviers 2km Female 25 Senior (19-29) 00:32:16
15 26 2 TA0763 Linda Poll-jonker 2km Female 43 Veteran (40-49) 00:32:56
16 28 4 TA1156 Teandra Combrick 2km Female 20 Senior (19-29) 00:33:57
17 29 3 TA0642 Christina Marais 2km Female 57 Master (50-59) 00:34:09
18 30 4 TA1116 Beatrice Kolbe 2km Female 59 Master (50-59) 00:34:37
19 31 3 TA0932 Corne Lombard 2km Female 47 Veteran (40-49) 00:39:09
20 32 2 TA1023 Elsie Lombard 2km Female 76 Grand-Master (60+) 00:39:14
30 51 8 TA1749 Bianca Kord 2km Female 35 Sub-Veteran (30-39) 01:01:54
31 52 3 TA0486 Milica Javancic 2km Female 60 Grand-Master (60+) 01:01:58
32 53 9 TA1303 Frane Van Der Walt 2km Female 35 Sub-Veteran (30-39) 01:02:01
33 54 3 TA1453 Mila Kord 2km Female 4 Under 11 01:02:03